Edwards Air Force Base Edwards US
ICAO: KEDW
IATA: EDW
Category: Large
Scheduled Services: No

Elevation: 2312 ft
TransAlt. 18000 ft.

Airport Communications:
SPORT APP/DEP:132.75
ATIS:26.99
GND:121.8
NASA FLT OPS:135.825
PMSV METRO:34.24
COMD POST:30.4
PTD:37.22
TWR:120.7

KEDW Zoom In..

Runways:

(A) RW 04L length 12000 ft width 200 ft
---- / hdg 43

(B) RW 04R length 15024 ft width 300 ft
---- / hdg 43

(C) RW 22L length 15024 ft width 300 ft
ILS 110.10 / hdg 223

(D) RW 22R length 12000 ft width 200 ft
---- / hdg 223

Location; KEDW
Day. 25 / Time. 11.58 Zulu
* Altimeter: 29.99
* Temperature: 15° c. 59°f.
* Wind from: 200° Speed 11 kn.
Dewpoint: -08° c.
Visibility: 50 Statute Miles.
Clouds: Few 2000 ft.
Clouds: Scattered 3000 ft.

KEDW 251158Z 20011KT 50SM FEW200 SCT300 15/M08 A2999 RMK AO2A SLP136 T01451082 10191 20141 53002


Wind From 200°
Speed 11 kn.

  YouTube Music Video
 
jpsmedia.com for Web Design  worldairports.se 2018   terms of use